N1LID Weather Reports


Display with metric or nautical units.
time (UTC)temp
F
wind
direction
speed
MPH
gust
MPH
rain 1hr
in
rain 24hr
in
rain mn
in
humidity
%
barometer
mb
20200331171700 54 126 0.0 0.0 0.00 0.00 0.00 64 1011.4
20200331170128 55 131 0.0 0.0 0.00 0.00 0.00 64 1012.0
20200331164602 55 73 0.0 0.0 0.00 0.00 0.00 65 1012.2
20200331161644 54 35 0.0 0.0 0.00 0.00 0.00 66 1012.1
20200331160109 54 76 0.0 0.0 0.00 0.00 0.00 66 1012.5
20200331154634 53 79 0.0 1.0 0.00 0.00 0.00 65 1012.7
20200331151619 54 64 0.0 0.0 0.00 0.00 0.00 64 1012.8
20200331150116 54 36 0.0 0.0 0.00 0.00 0.00 67 1012.2
20200331144616 54 74 0.0 0.0 0.00 0.00 0.00 70 1012.2
20200331141609 52 51 0.0 2.0 0.00 0.00 0.00 79 1013.3
20200331140040 51 42 0.0 0.0 0.00 0.00 0.00 81 1013.5
20200331134546 50 24 0.0 3.0 0.00 0.00 0.00 84 1013.4
20200331131605 48 64 0.0 0.0 0.00 0.00 0.00 89 1013.7
20200331130048 48 64 0.0 0.0 0.00 0.00 0.00 91 1013.9
20200331124543 47 64 0.0 0.0 0.00 0.00 0.00 93 1014.1
20200331121611 44 65 0.0 0.0 0.00 0.00 0.00 97 1013.7
20200331120101 43 65 0.0 0.0 0.00 0.00 0.00 97 1013.7
20200331114623 43 65 0.0 0.0 0.00 0.00 0.00 96 1013.7
20200331111552 41 65 0.0 0.0 0.00 0.00 0.00 96 1013.6
20200331110033 41 65 0.0 0.0 0.00 0.00 0.00 95 1013.7
20200331104612 41 65 0.0 0.0 0.00 0.00 0.00 94 1013.4
20200331101531 42 65 0.0 0.0 0.00 0.00 0.00 94 1013.0
20200331100025 42 65 0.0 0.0 0.00 0.00 0.00 94 1012.9
20200331094558 42 65 0.0 0.0 0.00 0.00 0.00 94 1012.8
20200331090017 43 65 0.0 0.0 0.00 0.00 0.00 93 1012.5
20200331084524 43 65 0.0 0.0 0.00 0.00 0.00 93 1012.7
20200331081622 44 65 0.0 0.0 0.00 0.00 0.00 93 1012.7
20200331080016 44 65 0.0 0.0 0.00 0.00 0.00 92 1012.8
20200331074508 44 65 0.0 0.0 0.00 0.00 0.00 92 1012.8
20200331071506 45 65 0.0 0.0 0.00 0.00 0.00 91 1012.8
20200331070004 46 65 0.0 0.0 0.00 0.00 0.00 91 1012.9
20200331064516 46 65 0.0 0.0 0.00 0.00 0.00 90 1012.9
20200331060139 47 65 0.0 0.0 0.00 0.00 0.00 89 1012.7
20200331054601 47 65 0.0 0.0 0.00 0.00 0.00 88 1012.8
20200331051626 49 64 0.0 0.0 0.00 0.00 0.00 87 1012.9
20200331050138 49 65 0.0 3.0 0.00 0.00 0.00 86 1012.8
20200331044557 50 86 0.0 2.0 0.00 0.00 0.00 85 1012.9
20200331041550 51 81 0.0 0.0 0.00 0.00 0.00 82 1012.9
20200331040058 51 38 0.0 0.0 0.00 0.00 0.00 81 1012.8
20200331034611 52 27 0.0 4.0 0.00 0.00 0.00 79 1012.8
20200331031622 54 63 0.0 0.0 0.00 0.00 0.00 75 1012.5
20200331030144 55 30 0.0 9.0 0.00 0.00 0.00 74 1012.3
20200331024556 56 58 0.0 4.0 0.00 0.00 0.00 73 1012.0
20200331021644 57 11 0.0 1.0 0.00 0.00 0.00 60 1011.9
20200331020058 57 284 0.0 0.0 0.00 0.00 0.00 56 1011.4
20200331014604 57 43 0.0 1.0 0.00 0.00 0.00 55 1011.3
20200331011600 58 52 0.0 0.0 0.00 0.00 0.00 55 1010.9
20200331010147 58 30 0.0 4.0 0.00 0.00 0.00 53 1010.8
20200331004558 59 68 0.0 1.0 0.00 0.00 0.00 52 1010.5
20200331001541 60 9 0.0 4.0 0.00 0.00 0.00 53 1010.2
20200331000101 61 92 0.0 1.0 0.00 0.00 0.00 51 1010.0
20200330234611 61 248 0.0 3.0 0.00 0.00 0.00 50 1009.8
20200330231638 63 360 0.0 1.0 0.00 0.00 0.00 58 1009.3
20200330230056 66 11 0.0 2.0 0.00 0.00 0.00 53 1008.8
20200330224557 71 31 0.0 0.0 0.00 0.00 0.00 39 1008.3
20200330221539 72 244 1.0 6.0 0.00 0.00 0.00 32 1007.2
20200330220059 72 223 0.0 3.0 0.00 0.00 0.00 32 1007.0
20200330214542 72 213 0.0 1.0 0.00 0.00 0.00 30 1006.9
20200330211544 72 234 0.0 1.0 0.00 0.00 0.00 30 1006.8
20200330210106 72 304 0.0 7.0 0.00 0.00 0.00 29 1006.8
20200330204532 72 264 0.0 0.0 0.00 0.00 0.00 29 1006.9
20200330201538 72 248 0.0 0.0 0.00 0.00 0.00 32 1007.1
20200330200115 72 240 0.0 0.0 0.00 0.00 0.00 33 1007.2
20200330194541 72 247 0.0 0.0 0.00 0.00 0.00 33 1007.5
20200330191524 73 238 0.0 0.0 0.00 0.00 0.00 34 1008.0
20200330190024 72 273 0.0 0.0 0.00 0.00 0.00 37 1008.4
20200330184519 71 273 0.0 0.0 0.00 0.00 0.00 37 1008.7
20200330181524 70 232 0.0 0.0 0.00 0.00 0.00 43 1009.3
20200330180008 69 257 0.0 0.0 0.00 0.00 0.00 48 1009.5
20200330174514 68 178 0.0 0.0 0.00 0.00 0.00 51 1009.8